Time;durP1;ratioP1;P1;durP2;ratioP2;P2;SDS_P1;SDS_P2;PMS_P1;PMS_P2;Temp;Humidity;BMP_temperature;BMP_pressure;BME280_temperature;BME280_humidity;BME280_pressure;Samples;Min_cycle;Max_cycle;Signal;HPM_P1;HPM_P2
2023/01/08 00:01:57;;;;;;;30.30;19.37;;;;;;;4.26;100.00;100061.94;5130414;27;20279;-47
2023/01/08 00:04:24;;;;;;;37.40;19.40;;;;;;;4.29;100.00;100063.63;5130606;27;20194;-48
2023/01/08 00:06:51;;;;;;;32.90;20.10;;;;;;;4.27;100.00;100062.78;5130456;28;20200;-47
2023/01/08 00:09:18;;;;;;;37.30;19.73;;;;;;;4.26;100.00;100066.22;5130775;27;20221;-47
2023/01/08 00:11:45;;;;;;;32.57;19.50;;;;;;;4.19;100.00;100061.88;5131075;28;20273;-49
2023/01/08 00:14:13;;;;;;;32.30;19.20;;;;;;;4.20;100.00;100061.03;5131274;28;20604;-48
2023/01/08 00:16:41;;;;;;;33.40;20.07;;;;;;;4.14;100.00;100056.72;5130744;28;20588;-52
2023/01/08 00:19:07;;;;;;;31.40;18.90;;;;;;;4.07;100.00;100065.22;5130514;28;20190;-57
2023/01/08 00:21:34;;;;;;;35.43;19.33;;;;;;;4.00;100.00;100066.03;5130825;28;20216;-56
2023/01/08 00:24:01;;;;;;;29.37;18.03;;;;;;;3.96;100.00;100056.59;5130673;28;20189;-48
2023/01/08 00:26:28;;;;;;;31.83;17.63;;;;;;;4.05;100.00;100066.94;5130658;28;20410;-48
2023/01/08 00:28:55;;;;;;;29.47;17.13;;;;;;;4.05;100.00;100060.94;5130509;27;20198;-50
2023/01/08 00:31:23;;;;;;;28.27;16.97;;;;;;;3.99;100.00;100056.63;5130354;27;20200;-46
2023/01/08 00:33:50;;;;;;;28.53;16.17;;;;;;;3.93;100.00;100056.59;5130314;28;20194;-48
2023/01/08 00:36:19;;;;;;;27.47;16.20;;;;;;;4.00;100.00;100063.47;5130780;28;20193;-48
2023/01/08 00:38:46;;;;;;;24.93;15.67;;;;;;;3.99;100.00;100062.63;5130864;28;20555;-46
2023/01/08 00:41:15;;;;;;;26.17;15.40;;;;;;;3.99;100.00;100061.75;5130477;28;20218;-47
2023/01/08 00:43:42;;;;;;;28.90;16.07;;;;;;;3.82;100.00;100069.34;5130434;28;20197;-48
2023/01/08 00:46:09;;;;;;;25.60;15.27;;;;;;;3.81;100.00;100057.38;5130143;27;20629;-48
2023/01/08 00:48:37;;;;;;;27.23;14.63;;;;;;;3.79;100.00;100068.47;5130445;27;20194;-47
2023/01/08 00:51:05;;;;;;;23.97;14.63;;;;;;;3.73;100.00;100059.00;5130151;28;20201;-48
2023/01/08 00:53:32;;;;;;;22.40;13.77;;;;;;;3.71;100.00;100067.56;5130384;28;20201;-48
2023/01/08 00:56:02;;;;;;;22.53;13.53;;;;;;;3.67;100.00;100064.09;5130125;28;20244;-47
2023/01/08 00:58:30;;;;;;;25.70;14.27;;;;;;;3.58;100.00;100067.47;5130203;27;20266;-46
2023/01/08 01:00:57;;;;;;;23.90;14.00;;;;;;;3.66;100.00;100064.94;5129880;27;20190;-47
2023/01/08 01:03:24;;;;;;;23.37;14.27;;;;;;;3.53;100.00;100070.81;5133573;27;20602;-47
2023/01/08 01:06:00;;;;;;;22.67;14.03;;;;;;;3.46;100.00;100071.63;5133426;27;20197;-47
2023/01/08 01:08:27;;;;;;;23.27;14.43;;;;;;;3.45;100.00;100068.19;5133780;27;20193;-47
2023/01/08 01:10:54;;;;;;;23.83;14.87;;;;;;;3.47;100.00;100061.38;5133581;27;20193;-57
2023/01/08 01:13:20;;;;;;;19.83;13.77;;;;;;;3.39;100.00;100057.00;5133641;27;20251;-56
2023/01/08 01:15:57;;;;;;;25.70;15.47;;;;;;;3.38;100.00;100051.03;5133726;27;20217;-57
2023/01/08 01:18:24;;;;;;;23.17;14.13;;;;;;;3.41;100.00;100057.88;5133689;27;20200;-47
2023/01/08 01:20:52;;;;;;;23.90;14.80;;;;;;;3.35;100.00;100048.44;5133596;27;20200;-47
2023/01/08 01:23:19;;;;;;;23.10;15.03;;;;;;;3.36;100.00;100054.44;5133786;27;20190;-47
2023/01/08 01:25:46;;;;;;;24.93;15.33;;;;;;;3.43;100.00;100051.94;5133447;27;20308;-47
2023/01/08 01:28:13;;;;;;;26.27;15.90;;;;;;;3.39;100.00;100047.59;5133444;27;20211;-47
2023/01/08 01:30:40;;;;;;;27.07;16.00;;;;;;;3.43;100.00;100044.22;5133418;27;20205;-48
2023/01/08 01:33:06;;;;;;;26.47;16.47;;;;;;;3.35;100.00;100042.44;5133244;27;20204;-47
2023/01/08 01:35:33;;;;;;;24.97;15.83;;;;;;;3.28;100.00;100042.38;5133351;27;20693;-48
2023/01/08 01:38:02;;;;;;;23.43;15.73;;;;;;;3.29;100.00;100040.69;5133141;27;20201;-47
2023/01/08 01:40:28;;;;;;;26.30;16.17;;;;;;;3.26;100.00;100048.38;5133011;27;20208;-47
2023/01/08 01:42:55;;;;;;;27.67;16.57;;;;;;;3.20;100.00;100038.03;5133177;27;20207;-48
2023/01/08 01:45:25;;;;;;;23.73;15.73;;;;;;;3.31;100.00;100036.41;5133313;27;20283;-47
2023/01/08 01:47:56;;;;;;;27.77;16.53;;;;;;;3.20;100.00;100027.78;5133078;27;20197;-49
2023/01/08 01:50:28;;;;;;;26.27;15.87;;;;;;;3.26;100.00;100035.53;5133302;27;20197;-49
2023/01/08 01:53:01;;;;;;;27.83;17.43;;;;;;;3.26;100.00;100020.16;5132851;27;20215;-57
2023/01/08 01:55:31;;;;;;;27.10;16.40;;;;;;;3.20;100.00;100035.47;5132911;27;20224;-57
2023/01/08 01:58:03;;;;;;;27.23;17.20;;;;;;;3.18;100.00;100032.03;5132873;27;20201;-57
2023/01/08 02:00:30;;;;;;;28.90;17.13;;;;;;;3.24;100.00;100037.22;5132971;27;20269;-57
2023/01/08 02:02:57;;;;;;;29.73;17.33;;;;;;;3.20;100.00;100031.19;5132785;27;20202;-56
2023/01/08 02:05:33;;;;;;;32.23;18.10;;;;;;;3.25;100.00;100033.81;5132715;27;20205;-57
2023/01/08 02:08:07;;;;;;;27.17;17.80;;;;;;;3.27;100.00;100032.13;5132705;27;20201;-57
2023/01/08 02:10:42;;;;;;;32.10;18.00;;;;;;;3.17;100.00;100014.91;5132522;27;20198;-57
2023/01/08 02:13:16;;;;;;;29.53;18.27;;;;;;;3.26;100.00;100025.28;5132119;27;20201;-57
2023/01/08 02:15:51;;;;;;;28.70;16.57;;;;;;;3.22;100.00;100024.38;5132623;27;20217;-56
2023/01/08 02:18:20;;;;;;;26.63;16.53;;;;;;;3.09;100.00;100021.69;5132589;27;20199;-56
2023/01/08 02:20:51;;;;;;;30.50;17.47;;;;;;;3.16;100.00;100024.31;5132489;27;20193;-57
2023/01/08 02:23:27;;;;;;;29.23;16.83;;;;;;;3.08;100.00;100015.69;5132425;27;20205;-57
2023/01/08 02:26:15;;;;;;;34.80;17.37;;;;;;;3.10;100.00;100026.84;5132334;27;20200;-46
2023/01/08 02:28:47;;;;;;;27.33;16.47;;;;;;;3.05;100.00;100004.56;5132356;27;20190;-57
2023/01/08 02:31:16;;;;;;;27.97;16.20;;;;;;;3.07;100.00;100015.69;5132300;27;20199;-57
2023/01/08 02:33:43;;;;;;;24.27;15.57;;;;;;;3.06;100.00;100026.78;5132335;27;20591;-57
2023/01/08 02:36:29;;;;;;;23.90;15.63;;;;;;;3.09;100.00;100025.13;5131951;27;20225;-57
2023/01/08 02:39:07;;;;;;;22.70;15.27;;;;;;;3.08;100.00;100022.53;5132748;27;20565;-56
2023/01/08 02:41:44;;;;;;;24.77;14.87;;;;;;;3.07;100.00;100018.25;5131985;27;20236;-57
2023/01/08 02:44:16;;;;;;;23.63;15.50;;;;;;;3.11;100.00;100010.59;5131900;27;20219;-57
2023/01/08 02:46:44;;;;;;;21.77;14.50;;;;;;;3.07;100.00;100010.53;5131916;27;20653;-57
2023/01/08 02:49:15;;;;;;;24.43;15.20;;;;;;;3.08;100.00;100014.84;5132066;27;20203;-57
2023/01/08 02:51:48;;;;;;;24.83;15.67;;;;;;;2.92;100.00;100003.59;5131833;27;20203;-56
2023/01/08 02:54:19;;;;;;;24.17;15.90;;;;;;;2.95;100.00;100018.13;5132038;27;20690;-57
2023/01/08 02:56:53;;;;;;;23.07;15.13;;;;;;;2.98;100.00;100019.03;5131775;27;20574;-47
2023/01/08 02:59:22;;;;;;;24.37;14.70;;;;;;;3.03;100.00;100019.94;5131717;27;20197;-47
2023/01/08 03:01:50;;;;;;;24.00;15.40;;;;;;;2.98;100.00;100018.16;5131790;27;20201;-47
2023/01/08 03:04:19;;;;;;;23.77;15.03;;;;;;;2.95;100.00;100010.44;5131774;27;20561;-48
2023/01/08 03:06:46;;;;;;;28.13;14.93;;;;;;;2.86;100.00;100018.91;5131562;27;20199;-47
2023/01/08 03:09:14;;;;;;;28.13;15.67;;;;;;;2.93;100.00;100015.56;5131532;27;20718;-48
2023/01/08 03:11:47;;;;;;;24.60;15.07;;;;;;;2.92;100.00;100013.84;5131301;27;20560;-48
2023/01/08 03:14:22;;;;;;;25.13;14.33;;;;;;;2.95;100.00;100013.00;5131626;27;20196;-48
2023/01/08 03:16:55;;;;;;;23.97;14.47;;;;;;;3.03;100.00;100019.06;5130932;27;20633;-50
2023/01/08 03:19:26;;;;;;;21.53;13.40;;;;;;;2.99;100.00;100014.75;5131060;27;20196;-48
2023/01/08 03:21:54;;;;;;;24.90;14.50;;;;;;;2.99;100.00;100020.75;5130931;27;20686;-48
2023/01/08 03:24:26;;;;;;;19.77;12.43;;;;;;;2.91;100.00;100020.69;5130291;27;20201;-48
2023/01/08 03:26:57;;;;;;;21.33;11.70;;;;;;;2.93;100.00;100016.41;5131047;27;20193;-47
2023/01/08 03:29:26;;;;;;;17.70;11.20;;;;;;;2.95;100.00;100018.13;5131400;27;20661;-47
2023/01/08 03:31:58;;;;;;;17.80;11.13;;;;;;;2.92;100.00;100014.72;5130997;27;20206;-48
2023/01/08 03:34:27;;;;;;;20.43;11.50;;;;;;;2.77;100.00;100014.53;5131202;27;20679;-48
2023/01/08 03:36:57;;;;;;;18.20;11.63;;;;;;;2.84;100.00;100020.56;5130686;27;20229;-48
2023/01/08 03:39:30;;;;;;;21.63;12.10;;;;;;;2.74;100.00;100014.50;5131100;27;20195;-47
2023/01/08 03:42:01;;;;;;;18.70;11.27;;;;;;;2.75;100.00;100016.22;5130695;27;20224;-48
2023/01/08 03:44:31;;;;;;;18.20;11.50;;;;;;;2.72;100.00;100012.75;5131218;27;20763;-48
2023/01/08 03:46:58;;;;;;;18.80;12.97;;;;;;;2.69;100.00;100008.50;5130975;27;20190;-47
2023/01/08 03:49:29;;;;;;;18.63;12.07;;;;;;;2.63;100.00;100008.41;5130923;27;20196;-47
2023/01/08 03:51:56;;;;;;;17.90;12.13;;;;;;;2.70;100.00;100012.78;5130772;27;20197;-47
2023/01/08 03:54:26;;;;;;;19.80;12.63;;;;;;;2.69;100.00;100010.19;5131041;27;20582;-48
2023/01/08 03:56:53;;;;;;;20.43;12.53;;;;;;;2.67;100.00;99999.91;5130740;27;20224;-48
2023/01/08 03:59:20;;;;;;;16.80;11.57;;;;;;;2.69;100.00;100011.03;5131019;28;20580;-48
2023/01/08 04:01:48;;;;;;;19.23;11.83;;;;;;;2.77;100.00;100006.00;5131247;28;20204;-48
2023/01/08 04:04:15;;;;;;;19.40;11.70;;;;;;;2.73;100.00;100010.22;5130512;28;20200;-48
2023/01/08 04:06:42;;;;;;;17.17;12.20;;;;;;;2.73;100.00;100011.91;5130958;28;20196;-48
2023/01/08 04:09:09;;;;;;;15.40;11.70;;;;;;;2.78;100.00;100016.25;5130714;28;20203;-47
2023/01/08 04:11:36;;;;;;;18.30;11.43;;;;;;;2.77;100.00;100016.25;5130738;28;20558;-47
2023/01/08 04:14:03;;;;;;;19.13;11.87;;;;;;;2.74;100.00;100019.63;5130778;28;20204;-48
2023/01/08 04:16:30;;;;;;;20.27;12.33;;;;;;;2.81;100.00;100021.44;5130658;28;20226;-47
2023/01/08 04:18:58;;;;;;;19.70;12.10;;;;;;;2.86;100.00;100027.44;5130754;28;20196;-48
2023/01/08 04:21:25;;;;;;;19.23;12.90;;;;;;;2.77;100.00;100018.81;5131063;28;20196;-47
2023/01/08 04:23:52;;;;;;;21.97;12.93;;;;;;;2.78;100.00;100023.97;5130552;28;20703;-48
2023/01/08 04:26:19;;;;;;;22.70;13.40;;;;;;;2.79;100.00;100023.13;5130609;28;20193;-47
2023/01/08 04:28:46;;;;;;;23.47;13.57;;;;;;;2.84;100.00;100025.72;5130555;28;20199;-47
2023/01/08 04:31:13;;;;;;;22.20;13.03;;;;;;;2.88;100.00;100033.47;5130808;28;20544;-48
2023/01/08 04:33:40;;;;;;;21.63;13.03;;;;;;;2.91;100.00;100030.94;5130422;28;20197;-57
2023/01/08 04:36:08;;;;;;;21.77;12.90;;;;;;;2.96;100.00;100037.78;5132434;27;20220;-56
2023/01/08 04:38:35;;;;;;;19.17;12.70;;;;;;;2.89;100.00;100035.19;5134489;27;20198;-55
2023/01/08 04:41:02;;;;;;;17.33;12.00;;;;;;;2.81;100.00;100029.13;5134048;27;20232;-57
2023/01/08 04:43:31;;;;;;;20.87;12.30;;;;;;;2.85;100.00;100028.28;5133961;27;20203;-57
2023/01/08 04:45:58;;;;;;;20.37;12.70;;;;;;;2.75;100.00;100031.59;5134191;27;20198;-56
2023/01/08 04:48:25;;;;;;;18.60;12.00;;;;;;;2.74;100.00;100029.88;5134159;27;20191;-57
2023/01/08 04:50:53;;;;;;;20.00;12.97;;;;;;;2.83;100.00;100041.94;5134208;27;20742;-57
2023/01/08 04:53:21;;;;;;;21.03;13.77;;;;;;;2.77;100.00;100044.44;5134151;27;20202;-56
2023/01/08 04:55:48;;;;;;;17.90;12.13;;;;;;;2.76;100.00;100038.44;5134214;27;20600;-47
2023/01/08 04:58:15;;;;;;;18.40;12.87;;;;;;;2.73;100.00;100042.69;5133868;27;20707;-47
2023/01/08 05:00:41;;;;;;;19.03;13.77;;;;;;;2.74;100.00;100045.25;5134328;27;20222;-48
2023/01/08 05:03:08;;;;;;;25.80;15.53;;;;;;;2.57;100.00;100038.22;5133854;27;20208;-47
2023/01/08 05:05:35;;;;;;;27.03;15.67;;;;;;;2.68;100.00;100049.47;5133989;27;20191;-47
2023/01/08 05:08:02;;;;;;;26.40;16.40;;;;;;;2.74;100.00;100049.53;5133549;27;20208;-47
2023/01/08 05:10:30;;;;;;;24.40;16.37;;;;;;;2.75;100.00;100052.09;5133719;27;20201;-48
2023/01/08 05:12:58;;;;;;;30.20;16.60;;;;;;;2.75;100.00;100048.69;5133899;27;20194;-47
2023/01/08 05:15:26;;;;;;;29.23;17.70;;;;;;;2.61;100.00;100048.53;5133785;27;20598;-46
2023/01/08 05:17:58;;;;;;;31.87;18.97;;;;;;;2.63;100.00;100049.41;5133823;27;20235;-47
2023/01/08 05:20:25;;;;;;;33.07;19.43;;;;;;;2.66;100.00;100057.13;5133838;27;20195;-47
2023/01/08 05:22:52;;;;;;;33.53;20.83;;;;;;;2.61;100.00;100040.84;5133495;27;20261;-56
2023/01/08 05:25:19;;;;;;;36.80;21.10;;;;;;;2.70;100.00;100058.03;5133447;27;20207;-56
2023/01/08 05:27:48;;;;;;;33.33;20.00;;;;;;;2.71;100.00;100055.47;5133984;27;20194;-57
2023/01/08 05:30:15;;;;;;;29.03;19.13;;;;;;;2.68;100.00;100054.59;5133071;27;20205;-57
2023/01/08 05:32:42;;;;;;;32.50;19.23;;;;;;;2.66;100.00;100048.59;5133345;27;20207;-57
2023/01/08 05:35:09;;;;;;;33.33;16.10;;;;;;;2.66;100.00;100057.13;5133448;27;20598;-57
2023/01/08 05:37:38;;;;;;;24.37;14.97;;;;;;;2.62;100.00;100059.63;5133479;27;20235;-57
2023/01/08 05:40:05;;;;;;;25.67;13.50;;;;;;;2.54;100.00;100054.44;5133335;27;20198;-57
2023/01/08 05:42:34;;;;;;;19.87;13.73;;;;;;;2.46;100.00;100053.47;5133270;27;20716;-48
2023/01/08 05:45:03;;;;;;;20.70;13.60;;;;;;;2.46;100.00;100059.47;5132920;27;20197;-48
2023/01/08 05:47:30;;;;;;;19.67;12.53;;;;;;;2.46;100.00;100064.59;5132307;27;20203;-48
2023/01/08 05:49:57;;;;;;;19.43;12.27;;;;;;;2.40;100.00;100059.38;5132849;27;20248;-48
2023/01/08 05:52:24;;;;;;;18.40;12.03;;;;;;;2.43;100.00;100063.69;5132951;27;20235;-48
2023/01/08 05:54:51;;;;;;;17.17;11.07;;;;;;;2.38;100.00;100055.06;5133299;27;20521;-57
2023/01/08 05:57:18;;;;;;;13.10;9.97;;;;;;;2.41;100.00;100063.66;5132995;27;20310;-48
2023/01/08 05:59:45;;;;;;;17.27;10.53;;;;;;;2.50;100.00;100066.34;5132947;27;20203;-48
2023/01/08 06:02:13;;;;;;;16.27;10.33;;;;;;;2.63;100.00;100069.91;5132951;27;20199;-56
2023/01/08 06:04:40;;;;;;;17.47;9.90;;;;;;;2.65;100.00;100068.22;5132867;27;20667;-47
2023/01/08 06:07:07;;;;;;;18.30;10.10;;;;;;;2.47;100.00;100068.00;5132780;27;20710;-49
2023/01/08 06:09:34;;;;;;;12.77;9.47;;;;;;;2.59;100.00;100062.19;5132815;27;20199;-47
2023/01/08 06:12:01;;;;;;;17.17;9.27;;;;;;;2.54;100.00;100051.88;5132493;27;20199;-47
2023/01/08 06:14:28;;;;;;;15.80;9.63;;;;;;;2.70;100.00;100069.16;5132745;27;20572;-56
2023/01/08 06:16:54;;;;;;;15.17;9.53;;;;;;;2.67;100.00;100070.81;5132354;27;20308;-48
2023/01/08 06:19:23;;;;;;;12.67;8.97;;;;;;;2.61;100.00;100063.91;5132303;27;20202;-47
2023/01/08 06:21:50;;;;;;;15.43;9.97;;;;;;;2.65;100.00;100075.91;5132348;27;20200;-56
2023/01/08 06:24:16;;;;;;;16.00;11.03;;;;;;;2.63;100.00;100076.72;5132289;27;20196;-57
2023/01/08 06:26:43;;;;;;;41.00;13.47;;;;;;;2.55;100.00;100071.53;5132485;27;20195;-47
2023/01/08 06:29:10;;;;;;;53.73;15.17;;;;;;;2.58;100.00;100076.69;5132433;27;20202;-47
2023/01/08 06:31:37;;;;;;;39.10;13.53;;;;;;;2.53;100.00;100083.44;5128546;27;20220;-48
2023/01/08 06:34:04;;;;;;;48.27;14.27;;;;;;;2.55;100.00;100079.22;5131161;27;20226;-47
2023/01/08 06:36:32;;;;;;;27.30;13.33;;;;;;;2.60;100.00;100090.38;5131482;27;20233;-48
2023/01/08 06:38:59;;;;;;;23.33;13.17;;;;;;;2.60;100.00;100087.78;5131409;27;20221;-46
2023/01/08 06:41:26;;;;;;;24.70;13.47;;;;;;;2.64;100.00;100081.03;5131271;27;20240;-47
2023/01/08 06:43:53;;;;;;;17.97;11.60;;;;;;;2.73;100.00;100092.25;5131611;27;20628;-47
2023/01/08 06:46:20;;;;;;;20.53;11.87;;;;;;;2.76;100.00;100099.09;5131220;27;20584;-48
2023/01/08 06:48:47;;;;;;;21.07;12.13;;;;;;;2.83;100.00;100104.31;5131280;27;20704;-48
2023/01/08 06:51:14;;;;;;;15.87;11.53;;;;;;;2.93;100.00;100101.00;5130784;27;20300;-47
2023/01/08 06:53:42;;;;;;;20.27;11.67;;;;;;;3.10;100.00;100106.34;5131694;27;20198;-48
2023/01/08 06:56:09;;;;;;;18.17;10.93;;;;;;;3.07;100.00;100111.44;5131459;27;20228;-48
2023/01/08 06:58:38;;;;;;;17.23;9.73;;;;;;;3.12;100.00;100114.06;5130985;27;20201;-48
2023/01/08 07:01:05;;;;;;;16.17;9.77;;;;;;;3.22;100.00;100115.88;5131245;27;20199;-47
2023/01/08 07:03:33;;;;;;;17.07;10.00;;;;;;;3.27;100.00;100114.22;5131746;27;20280;-48
2023/01/08 07:06:02;;;;;;;17.77;10.77;;;;;;;3.26;100.00;100117.63;5131375;27;20197;-47
2023/01/08 07:08:29;;;;;;;16.30;11.00;;;;;;;3.23;100.00;100113.31;5131736;27;20273;-47
2023/01/08 07:11:02;;;;;;;18.77;11.07;;;;;;;3.29;100.00;100108.25;5131470;27;20197;-49
2023/01/08 07:13:29;;;;;;;19.97;11.67;;;;;;;3.30;100.00;100114.22;5131336;27;20201;-47
2023/01/08 07:15:56;;;;;;;18.40;11.33;;;;;;;3.26;100.00;100121.06;5131577;27;20562;-48
2023/01/08 07:18:23;;;;;;;16.40;10.73;;;;;;;3.20;100.00;100115.84;5130103;27;20197;-48
2023/01/08 07:20:50;;;;;;;16.13;10.93;;;;;;;3.33;100.00;100123.66;5130109;27;20742;-48
2023/01/08 07:23:16;;;;;;;17.93;10.57;;;;;;;3.45;100.00;100124.66;5130135;27;20593;-47
2023/01/08 07:25:43;;;;;;;17.80;11.17;;;;;;;3.49;100.00;100131.53;5130228;27;20589;-48
2023/01/08 07:28:12;;;;;;;17.30;11.70;;;;;;;3.40;100.00;100126.31;5129711;27;20287;-47
2023/01/08 07:30:39;;;;;;;21.47;11.53;;;;;;;3.45;100.00;100111.81;5132930;27;20200;-57
2023/01/08 07:33:06;;;;;;;16.43;11.97;;;;;;;3.64;100.00;100131.66;5138904;27;20572;-56
2023/01/08 07:35:34;;;;;;;23.20;12.57;;;;;;;3.70;100.00;100130.88;5150943;27;20200;-57
2023/01/08 07:38:01;;;;;;;14.33;11.00;;;;;;;3.76;100.00;100135.19;5142236;27;20216;-47
2023/01/08 07:40:28;;;;;;;24.10;11.53;;;;;;;3.90;100.00;100129.31;5129735;27;20283;-48
2023/01/08 07:42:59;;;;;;;20.73;11.40;;;;;;;4.02;100.00;100136.28;5129408;27;20196;-48
2023/01/08 07:45:28;;;;;;;21.63;13.67;;;;;;;4.04;100.00;100131.16;5129540;27;20326;-48
2023/01/08 07:47:56;;;;;;;17.90;11.77;;;;;;;4.02;100.00;100133.69;5130227;27;20569;-48
2023/01/08 07:50:23;;;;;;;19.23;11.53;;;;;;;4.16;100.00;100139.81;5129880;27;20198;-48
2023/01/08 07:52:50;;;;;;;13.97;11.10;;;;;;;4.07;100.00;100126.88;5129968;27;20194;-47
2023/01/08 07:55:17;;;;;;;23.27;12.33;;;;;;;4.27;100.00;100138.16;5129449;27;20204;-48
2023/01/08 07:57:44;;;;;;;23.07;12.73;;;;;;;4.27;100.00;100133.03;5130365;27;20224;-48
2023/01/08 08:00:13;;;;;;;24.13;12.67;;;;;;;4.34;100.00;100127.06;5130577;27;20189;-47
2023/01/08 08:02:41;;;;;;;21.60;12.87;;;;;;;4.52;100.00;100136.56;5130672;28;20197;-47
2023/01/08 08:05:09;;;;;;;18.23;12.77;;;;;;;4.63;100.00;100134.06;5130715;28;20232;-49
2023/01/08 08:07:36;;;;;;;23.23;13.43;;;;;;;4.67;100.00;100134.09;5130772;28;20284;-47
2023/01/08 08:10:04;;;;;;;16.57;11.83;;;;;;;4.76;100.00;100125.56;5130868;27;20195;-47
2023/01/08 08:12:31;;;;;;;24.40;14.50;;;;;;;4.84;100.00;100129.03;5135078;27;20206;-48
2023/01/08 08:14:57;;;;;;;21.73;13.13;;;;;;;4.92;100.00;100137.63;5135024;27;20193;-48
2023/01/08 08:17:25;;;;;;;32.17;15.15;;;;;;;4.87;100.00;100131.59;5134120;27;20441;-53
2023/01/08 08:19:53;;;;;;;33.22;16.25;;;;;;;5.10;100.00;100129.13;5133933;27;20932;-55
2023/01/08 08:22:20;;;;;;;34.57;16.57;;;;;;;5.18;100.00;100134.31;5134569;27;20198;-60
2023/01/08 08:24:47;;;;;;;28.73;16.67;;;;;;;5.25;100.00;100134.31;5135182;27;20685;-63
2023/01/08 08:27:14;;;;;;;26.93;16.03;;;;;;;5.26;100.00;100130.03;5134433;27;20212;-59
2023/01/08 08:29:41;;;;;;;35.40;20.00;;;;;;;5.40;100.00;100131.78;5134600;27;20217;-61
2023/01/08 08:32:08;;;;;;;32.60;20.00;;;;;;;5.46;100.00;100131.78;5133560;27;20190;-56
2023/01/08 08:34:35;;;;;;;32.13;18.27;;;;;;;5.50;100.00;100140.38;5133153;27;20342;-58
2023/01/08 08:37:03;;;;;;;38.87;18.43;;;;;;;5.48;100.00;100113.75;5130350;27;20221;-58
2023/01/08 08:39:30;;;;;;;23.80;14.93;;;;;;;5.67;100.00;100125.78;5133579;27;20670;-57
2023/01/08 08:41:57;;;;;;;29.30;16.57;;;;;;;5.62;100.00;100126.66;5133158;27;20225;-57
2023/01/08 08:44:24;;;;;;;28.13;17.13;;;;;;;5.68;100.00;100126.66;5133697;27;20687;-56
2023/01/08 08:46:51;;;;;;;17.07;12.67;;;;;;;5.79;100.00;100128.38;5134072;27;20193;-56
2023/01/08 08:49:17;;;;;;;26.37;14.23;;;;;;;5.81;100.00;100124.09;5134291;27;20194;-57
2023/01/08 08:51:44;;;;;;;16.70;11.73;;;;;;;5.91;100.00;100129.25;5134011;27;20670;-56
2023/01/08 08:54:13;;;;;;;23.23;15.80;;;;;;;5.92;100.00;100136.13;5133880;27;20237;-56
2023/01/08 08:56:40;;;;;;;15.33;10.83;;;;;;;6.06;100.00;100124.13;5133964;27;20200;-55
2023/01/08 08:59:08;;;;;;;23.57;13.43;;;;;;;6.12;100.00;100124.97;5133942;27;20289;-56
2023/01/08 09:01:34;;;;;;;19.53;12.03;;;;;;;6.25;99.14;100130.97;5134057;27;20194;-56
2023/01/08 09:04:01;;;;;;;27.23;15.07;;;;;;;6.18;100.00;100126.69;5133745;27;20202;-57
2023/01/08 09:06:28;;;;;;;24.10;12.30;;;;;;;6.27;100.00;100128.38;5133789;27;20194;-57
2023/01/08 09:08:55;;;;;;;15.73;10.57;;;;;;;6.34;99.81;100119.75;5133862;27;20194;-55
2023/01/08 09:11:23;;;;;;;18.27;11.60;;;;;;;6.47;97.76;100124.03;5133923;27;20652;-55
2023/01/08 09:13:50;;;;;;;18.10;12.90;;;;;;;6.43;98.57;100120.59;5134021;27;20296;-56
2023/01/08 09:16:17;;;;;;;18.00;11.50;;;;;;;6.53;98.19;100117.16;5133602;27;20201;-56
2023/01/08 09:18:44;;;;;;;21.80;12.53;;;;;;;6.55;98.98;100111.97;5133513;27;20217;-56
2023/01/08 09:21:11;;;;;;;22.87;13.83;;;;;;;6.58;97.53;100104.22;5133252;27;20240;-57
2023/01/08 09:23:38;;;;;;;19.37;13.67;;;;;;;6.80;97.99;100115.31;5132696;27;20185;-55
2023/01/08 09:26:05;;;;;;;14.80;10.40;;;;;;;6.83;97.52;100105.88;5133393;27;20194;-56
2023/01/08 09:28:34;;;;;;;20.50;10.63;;;;;;;6.90;96.34;100107.53;5133606;27;20197;-58
2023/01/08 09:31:01;;;;;;;14.43;9.93;;;;;;;6.86;95.80;100080.06;5133262;27;20193;-58
2023/01/08 09:33:28;;;;;;;14.60;9.87;;;;;;;6.86;96.54;100099.84;5133224;27;20249;-56
2023/01/08 09:35:55;;;;;;;12.40;8.43;;;;;;;7.02;94.38;100090.28;5133618;27;20250;-57
2023/01/08 09:38:22;;;;;;;12.83;10.00;;;;;;;7.03;94.40;100094.56;5133456;27;20587;-57
2023/01/08 09:40:56;;;;;;;13.03;8.67;;;;;;;7.10;94.19;100084.22;5131328;27;20234;-57
2023/01/08 09:43:26;;;;;;;9.70;7.67;;;;;;;7.15;93.14;100087.63;5133094;27;20197;-57
2023/01/08 09:45:58;;;;;;;11.13;9.20;;;;;;;7.26;92.50;100079.81;5133165;27;20201;-57
2023/01/08 09:48:30;;;;;;;12.17;9.67;;;;;;;7.20;92.60;100075.56;5133282;27;20190;-57
2023/01/08 09:50:57;;;;;;;10.60;8.87;;;;;;;7.25;91.48;100068.63;5132949;27;20197;-58
2023/01/08 09:53:25;;;;;;;17.50;9.13;;;;;;;7.28;91.03;100067.75;5133021;27;20208;-57
2023/01/08 09:55:56;;;;;;;12.67;9.07;;;;;;;7.34;90.56;100059.97;5133103;27;20216;-57
2023/01/08 09:58:37;;;;;;;21.97;12.57;;;;;;;7.40;90.46;100059.06;5132762;27;20293;-56
2023/01/08 10:01:10;;;;;;;19.33;12.47;;;;;;;7.40;90.25;100052.19;5132709;27;20200;-57
2023/01/08 10:03:41;;;;;;;18.40;11.13;;;;;;;7.46;89.45;100059.88;5132782;27;20194;-57
2023/01/08 10:06:10;;;;;;;23.33;11.73;;;;;;;7.49;89.00;100053.81;5132625;27;20706;-56
2023/01/08 10:08:37;;;;;;;24.50;13.37;;;;;;;7.63;89.14;100057.16;5132616;27;20190;-56
2023/01/08 10:11:05;;;;;;;25.03;14.07;;;;;;;7.66;88.66;100049.41;5132622;27;20193;-57
2023/01/08 10:13:33;;;;;;;24.23;13.93;;;;;;;7.72;89.20;100044.16;5132556;27;20204;-56
2023/01/08 10:16:00;;;;;;;10.97;8.47;;;;;;;7.72;88.15;100038.13;5132338;27;20190;-57
2023/01/08 10:18:29;;;;;;;18.57;10.23;;;;;;;7.80;88.60;100033.75;5132616;27;20222;-57
2023/01/08 10:20:56;;;;;;;30.67;14.80;;;;;;;7.87;88.53;100031.13;5132814;27;20204;-56
2023/01/08 10:23:24;;;;;;;76.07;27.80;;;;;;;7.83;87.99;100028.56;5132189;27;20251;-57
2023/01/08 10:25:54;;;;;;;69.53;27.43;;;;;;;7.86;88.44;100025.97;5132598;27;20198;-57
2023/01/08 10:28:23;;;;;;;39.37;18.33;;;;;;;8.09;86.56;100028.31;5132187;27;20575;-58
2023/01/08 10:30:51;;;;;;;69.47;26.03;;;;;;;8.16;87.19;100019.59;5132247;27;20190;-55
2023/01/08 10:33:21;;;;;;;58.87;25.83;;;;;;;8.26;88.19;100005.69;5131766;27;20236;-57
2023/01/08 10:35:57;;;;;;;61.27;26.13;;;;;;;8.27;87.16;100007.41;5131947;27;20194;-56
2023/01/08 10:38:28;;;;;;;23.10;11.83;;;;;;;8.35;86.77;100000.47;5131962;27;20608;-56
2023/01/08 10:40:56;;;;;;;17.33;10.17;;;;;;;8.46;85.86;100008.09;5132284;27;20760;-56
2023/01/08 10:43:28;;;;;;;15.60;9.13;;;;;;;8.54;85.37;100001.94;5132100;27;20190;-55
2023/01/08 10:45:58;;;;;;;10.33;8.37;;;;;;;8.57;84.03;99996.75;5132314;27;20561;-56
2023/01/08 10:48:32;;;;;;;10.33;9.13;;;;;;;8.63;83.43;99996.66;5131993;27;20243;-55
2023/01/08 10:51:14;;;;;;;10.37;9.17;;;;;;;8.64;83.57;99982.84;5131818;27;20197;-55
2023/01/08 10:53:41;;;;;;;10.30;8.30;;;;;;;8.71;84.00;99989.63;5131607;27;20201;-57
2023/01/08 10:56:19;;;;;;;10.27;8.67;;;;;;;8.79;83.15;99983.50;5131095;27;20202;-56
2023/01/08 10:58:46;;;;;;;12.03;9.33;;;;;;;8.84;82.88;99971.34;5131559;27;20281;-56
2023/01/08 11:01:20;;;;;;;10.60;9.33;;;;;;;8.94;82.66;99972.91;5131607;27;20205;-56
2023/01/08 11:03:51;;;;;;;16.80;9.93;;;;;;;8.98;82.00;99969.41;5131892;27;20745;-58
2023/01/08 11:06:23;;;;;;;12.60;9.73;;;;;;;8.99;81.96;99966.81;5131600;27;20198;-56
2023/01/08 11:08:52;;;;;;;11.07;8.37;;;;;;;9.04;81.88;99966.72;5131265;27;20192;-57
2023/01/08 11:11:19;;;;;;;9.07;8.17;;;;;;;9.09;80.88;99957.16;5130784;27;20202;-56
2023/01/08 11:13:57;;;;;;;9.17;7.93;;;;;;;9.08;81.48;99960.63;5131395;27;20282;-56
2023/01/08 11:16:32;;;;;;;8.77;7.87;;;;;;;9.13;80.53;99958.81;5131533;27;20649;-56
2023/01/08 11:18:59;;;;;;;9.73;7.80;;;;;;;9.21;80.25;99959.56;5131428;27;20278;-55